createdAt,value
2023-04-30T00:01:35.004Z,20.30
2023-04-30T00:06:36.859Z,20.30
2023-04-30T00:11:38.721Z,20.33
2023-04-30T00:16:40.686Z,20.34
2023-04-30T00:21:42.682Z,20.33
2023-04-30T00:26:44.494Z,20.33
2023-04-30T00:31:46.398Z,20.31
2023-04-30T00:36:48.167Z,20.31
2023-04-30T00:41:49.899Z,20.28
2023-04-30T00:46:51.650Z,20.33
2023-04-30T00:51:54.417Z,20.26
2023-04-30T00:56:56.445Z,20.30
2023-04-30T01:01:58.313Z,20.30
2023-04-30T01:07:02.443Z,20.28
2023-04-30T01:12:35.309Z,20.28
2023-04-30T01:18:00.552Z,20.29
2023-04-30T01:23:11.285Z,20.30
2023-04-30T01:28:17.411Z,20.28
2023-04-30T01:33:19.181Z,20.28
2023-04-30T01:38:39.351Z,20.26
2023-04-30T01:44:01.448Z,20.25
2023-04-30T01:49:40.947Z,20.27
2023-04-30T01:54:53.153Z,20.30
2023-04-30T01:59:55.636Z,20.32
2023-04-30T02:04:57.750Z,20.28
2023-04-30T02:09:59.509Z,20.28
2023-04-30T02:15:02.342Z,20.27
2023-04-30T02:20:04.910Z,20.27
2023-04-30T02:25:07.196Z,20.30
2023-04-30T02:30:09.173Z,20.28
2023-04-30T02:35:11.020Z,20.24
2023-04-30T02:40:12.987Z,20.25
2023-04-30T02:45:15.185Z,20.28
2023-04-30T02:50:17.064Z,20.27
2023-04-30T02:55:18.987Z,20.24
2023-04-30T03:00:21.127Z,20.28
2023-04-30T03:05:23.427Z,20.26
2023-04-30T03:10:25.707Z,20.23
2023-04-30T03:15:27.504Z,20.25
2023-04-30T03:20:29.315Z,20.23
2023-04-30T03:25:31.132Z,20.24
2023-04-30T03:30:32.935Z,20.25
2023-04-30T03:35:35.037Z,20.26
2023-04-30T03:40:36.818Z,20.27
2023-04-30T03:45:38.595Z,20.21
2023-04-30T03:50:40.548Z,20.22
2023-04-30T03:55:42.825Z,20.27
2023-04-30T04:00:46.036Z,20.23
2023-04-30T04:05:48.054Z,20.22
2023-04-30T04:10:50.009Z,20.21
2023-04-30T04:15:51.809Z,20.23
2023-04-30T04:20:56.381Z,20.22
2023-04-30T04:25:58.147Z,20.26
2023-04-30T04:31:00.287Z,20.25
2023-04-30T04:36:02.133Z,20.26
2023-04-30T04:41:03.907Z,20.24
2023-04-30T04:46:05.795Z,20.23
2023-04-30T04:51:07.580Z,20.24
2023-04-30T04:56:09.414Z,20.19
2023-04-30T05:01:11.665Z,20.19
2023-04-30T05:06:13.509Z,20.15
2023-04-30T05:11:15.926Z,20.21
2023-04-30T05:16:18.013Z,20.17
2023-04-30T05:21:19.864Z,20.23
2023-04-30T05:26:23.818Z,20.22
2023-04-30T05:31:25.646Z,20.20
2023-04-30T05:36:28.766Z,20.18
2023-04-30T05:41:30.576Z,20.34
2023-04-30T05:46:32.778Z,20.51
2023-04-30T05:51:34.627Z,20.63
2023-04-30T05:56:36.484Z,20.76
2023-04-30T06:01:38.378Z,20.87
2023-04-30T06:06:40.423Z,20.92
2023-04-30T06:11:42.709Z,21.01
2023-04-30T06:16:45.693Z,21.05
2023-04-30T06:21:47.514Z,21.08
2023-04-30T06:26:49.240Z,21.09
2023-04-30T06:31:52.036Z,20.80
2023-04-30T06:36:54.040Z,20.88
2023-04-30T06:41:56.041Z,20.68
2023-04-30T06:46:57.806Z,20.70
2023-04-30T06:51:59.811Z,20.64
2023-04-30T06:57:02.160Z,20.66
2023-04-30T07:02:03.990Z,20.60
2023-04-30T07:07:05.820Z,20.63
2023-04-30T07:12:07.662Z,20.67
2023-04-30T07:17:09.532Z,20.63
2023-04-30T07:22:11.696Z,20.64
2023-04-30T07:27:13.649Z,20.69
2023-04-30T07:32:16.676Z,20.68
2023-04-30T07:37:18.437Z,20.69
2023-04-30T07:42:20.253Z,21.02
2023-04-30T07:47:22.183Z,21.32
2023-04-30T07:52:24.088Z,21.34
2023-04-30T07:57:28.994Z,21.34
2023-04-30T08:02:31.369Z,21.31
2023-04-30T08:07:33.276Z,21.34
2023-04-30T08:12:37.388Z,21.37
2023-04-30T08:17:39.247Z,21.36
2023-04-30T08:22:41.096Z,21.36
2023-04-30T08:27:42.991Z,21.39
2023-04-30T08:32:44.812Z,21.26
2023-04-30T08:37:46.625Z,21.21
2023-04-30T08:43:00.372Z,21.19
2023-04-30T08:48:04.883Z,21.28
2023-04-30T08:53:08.739Z,20.85
2023-04-30T08:58:13.407Z,20.79
2023-04-30T09:03:15.430Z,20.77
2023-04-30T09:08:19.199Z,20.99
2023-04-30T09:13:21.082Z,21.02
2023-04-30T09:18:22.899Z,21.00
2023-04-30T09:23:25.412Z,21.07
2023-04-30T09:28:29.063Z,21.03
2023-04-30T09:33:46.713Z,21.06
2023-04-30T09:38:48.626Z,21.01
2023-04-30T09:43:50.796Z,21.09
2023-04-30T09:49:04.127Z,21.04
2023-04-30T09:54:08.180Z,21.06
2023-04-30T09:59:11.658Z,21.04
2023-04-30T10:09:38.575Z,20.98
2023-04-30T10:14:45.815Z,20.83
2023-04-30T10:19:55.470Z,20.64
2023-04-30T10:24:57.723Z,20.52
2023-04-30T10:30:00.310Z,20.51
2023-04-30T10:35:23.813Z,20.51
2023-04-30T10:40:29.023Z,20.62
2023-04-30T10:45:44.165Z,20.59
2023-04-30T10:50:47.154Z,20.68
2023-04-30T10:55:53.748Z,20.67
2023-04-30T11:01:18.152Z,20.74
2023-04-30T11:06:20.382Z,20.72
2023-04-30T11:11:24.137Z,20.86
2023-04-30T11:16:35.236Z,20.85
2023-04-30T11:22:03.545Z,20.90
2023-04-30T11:27:09.587Z,20.85
2023-04-30T11:32:12.001Z,20.96
2023-04-30T11:37:20.227Z,20.96
2023-04-30T11:42:22.364Z,20.87
2023-04-30T11:47:24.595Z,20.94
2023-04-30T11:52:27.122Z,21.01
2023-04-30T11:57:35.764Z,20.90
2023-04-30T12:02:37.900Z,20.96
2023-04-30T12:07:40.341Z,20.86
2023-04-30T12:12:44.611Z,20.88
2023-04-30T12:17:47.060Z,20.91
2023-04-30T12:22:49.601Z,20.73
2023-04-30T12:27:54.735Z,20.48
2023-04-30T12:33:00.714Z,20.51
2023-04-30T12:38:08.323Z,20.49
2023-04-30T12:43:10.233Z,20.85
2023-04-30T12:48:12.585Z,20.94
2023-04-30T12:53:14.637Z,20.98
2023-04-30T12:58:17.174Z,21.01
2023-04-30T13:03:21.463Z,20.94
2023-04-30T13:08:24.085Z,21.01
2023-04-30T13:13:26.972Z,21.00
2023-04-30T13:18:28.895Z,21.01
2023-04-30T13:23:35.952Z,20.97
2023-04-30T13:28:43.716Z,21.00
2023-04-30T13:33:45.669Z,20.95
2023-04-30T13:38:47.861Z,21.00
2023-04-30T13:43:50.028Z,20.86
2023-04-30T13:48:53.731Z,20.92
2023-04-30T13:53:55.904Z,20.94
2023-04-30T13:58:57.816Z,20.96
2023-04-30T14:04:00.031Z,20.92
2023-04-30T14:09:02.369Z,21.01
2023-04-30T14:14:04.544Z,20.99
2023-04-30T14:19:06.542Z,20.97
2023-04-30T14:24:09.526Z,21.00
2023-04-30T14:29:11.825Z,20.96
2023-04-30T14:34:14.588Z,21.05
2023-04-30T14:39:16.900Z,21.02
2023-04-30T14:44:19.380Z,20.92
2023-04-30T14:49:21.488Z,21.00
2023-04-30T14:54:23.866Z,20.89
2023-04-30T14:59:25.946Z,20.73
2023-04-30T15:04:27.819Z,20.58
2023-04-30T15:09:29.795Z,20.48
2023-04-30T15:14:31.980Z,20.63
2023-04-30T15:19:33.987Z,20.54
2023-04-30T15:24:36.804Z,20.57
2023-04-30T15:29:40.707Z,20.48
2023-04-30T15:34:42.798Z,20.68
2023-04-30T15:39:44.752Z,20.49
2023-04-30T15:44:47.034Z,20.58
2023-04-30T15:49:49.112Z,20.76
2023-04-30T15:54:51.637Z,20.87
2023-04-30T15:59:53.876Z,20.81
2023-04-30T16:04:56.136Z,20.61
2023-04-30T16:10:00.045Z,20.91
2023-04-30T16:15:02.328Z,21.01
2023-04-30T16:20:04.916Z,20.99
2023-04-30T16:25:08.773Z,20.71
2023-04-30T16:30:11.103Z,20.74
2023-04-30T16:35:12.970Z,20.98
2023-04-30T16:40:15.064Z,21.01
2023-04-30T16:45:17.309Z,20.97
2023-04-30T16:50:19.449Z,20.98
2023-04-30T16:55:21.534Z,20.99
2023-04-30T17:00:23.555Z,20.98
2023-04-30T17:05:26.635Z,21.01
2023-04-30T17:10:30.434Z,20.98
2023-04-30T17:15:32.726Z,20.96
2023-04-30T17:20:35.520Z,21.01
2023-04-30T17:25:38.560Z,21.00
2023-04-30T17:30:42.344Z,21.03
2023-04-30T17:35:44.385Z,20.96
2023-04-30T17:40:46.404Z,20.97
2023-04-30T17:45:48.509Z,20.94
2023-04-30T17:50:50.914Z,20.96
2023-04-30T17:55:52.799Z,20.93
2023-04-30T18:00:57.368Z,20.83
2023-04-30T18:05:59.390Z,20.85
2023-04-30T18:11:03.718Z,20.87
2023-04-30T18:16:05.958Z,20.87
2023-04-30T18:21:09.171Z,20.89
2023-04-30T18:26:11.418Z,20.84
2023-04-30T18:31:13.730Z,20.85
2023-04-30T18:36:15.753Z,20.90
2023-04-30T18:41:17.854Z,20.86
2023-04-30T18:46:20.362Z,20.85
2023-04-30T18:51:22.722Z,20.89
2023-04-30T18:56:24.957Z,20.88
2023-04-30T19:01:27.706Z,20.92
2023-04-30T19:06:31.097Z,20.96
2023-04-30T19:11:35.947Z,20.94
2023-04-30T19:16:41.912Z,20.94
2023-04-30T19:21:44.235Z,20.95
2023-04-30T19:26:46.375Z,20.90
2023-04-30T19:31:48.749Z,20.90
2023-04-30T19:36:50.989Z,20.88
2023-04-30T19:41:53.464Z,20.91
2023-04-30T19:46:56.784Z,20.87
2023-04-30T19:51:59.017Z,21.02
2023-04-30T19:57:02.330Z,20.95
2023-04-30T20:02:04.497Z,20.94
2023-04-30T20:07:07.303Z,20.91
2023-04-30T20:12:10.052Z,20.94
2023-04-30T20:17:13.843Z,20.93
2023-04-30T20:22:15.930Z,20.96
2023-04-30T20:27:18.018Z,20.96
2023-04-30T20:32:19.926Z,20.93
2023-04-30T20:37:21.835Z,20.92
2023-04-30T20:42:23.816Z,20.93
2023-04-30T20:47:26.052Z,20.86
2023-04-30T20:52:28.077Z,20.89
2023-04-30T20:57:30.330Z,21.03
2023-04-30T21:02:32.406Z,20.98
2023-04-30T21:07:37.427Z,20.93
2023-04-30T21:12:39.225Z,20.95
2023-04-30T21:17:41.313Z,20.91
2023-04-30T21:22:43.570Z,20.90
2023-04-30T21:27:45.928Z,20.91
2023-04-30T21:32:48.332Z,20.86
2023-04-30T21:37:50.712Z,20.89
2023-04-30T21:42:53.372Z,20.89
2023-04-30T21:47:55.761Z,20.88
2023-04-30T21:52:57.955Z,20.92
2023-04-30T21:57:59.774Z,20.88
2023-04-30T22:03:01.834Z,20.89
2023-04-30T22:08:04.414Z,20.92
2023-04-30T22:13:06.545Z,20.88
2023-04-30T22:18:08.882Z,20.88
2023-04-30T22:23:11.016Z,20.87
2023-04-30T22:28:13.380Z,20.89
2023-04-30T22:33:15.597Z,20.89
2023-04-30T22:38:17.803Z,20.86
2023-04-30T22:43:19.893Z,20.84
2023-04-30T22:48:22.629Z,20.88
2023-04-30T22:53:24.866Z,20.84
2023-04-30T22:58:27.104Z,20.83
2023-04-30T23:03:29.043Z,20.82
2023-04-30T23:08:31.482Z,20.82
2023-04-30T23:13:33.507Z,20.81
2023-04-30T23:18:38.675Z,20.86
2023-04-30T23:23:41.123Z,20.82
2023-04-30T23:28:43.275Z,20.81
2023-04-30T23:33:45.255Z,20.82
2023-04-30T23:38:47.517Z,20.83
2023-04-30T23:43:49.509Z,20.81
2023-04-30T23:48:52.222Z,20.81
2023-04-30T23:53:54.291Z,20.80
2023-04-30T23:58:56.276Z,20.78
